Flight Track Log - Related Links

Times and Time Zones

All times are in EDT time to prevent confusion due to time zone crossing. See the DAL3720 flight status page for this flight to view local times or setup timezone preferences in your user account.

Time Position Orientation Groundspeed Altitude Reporting Facility
EDT Latitude Longitude Course Direction KTS MPH feet Rate Location/Type
Thu 07:20:06 AM 35.1933 -80.9533 13° North 161 185 1,400  Level Atlanta Center
Thu 07:22:29 AM 35.1361 -81.0825 242° Southwest 241 277 28,000 2,158 Climbing Atlanta Center
Thu 07:23:00 AM 35.2767 -81.1865 68° East  Level FlightAware Approximate
Thu 07:23:29 AM 35.1444 -81.1761 276° West 268 308 8,700  Level Atlanta Center
Thu 07:24:00 AM 35.3528 -81.0576 52° Northeast  Level FlightAware Approximate
Thu 07:24:29 AM 35.2283 -81.1886 353° North 253 291 10,600  Level Atlanta Center
Thu 07:25:00 AM 35.4479 -80.9575 13° North  Level FlightAware Approximate
Thu 07:25:29 AM 35.3106 -81.1372 27° Northeast 266 306 12,600  Level Atlanta Center
Thu 07:26:29 AM 35.3989 -81.0833 26° Northeast 310 357 14,000 1,400 Climbing Atlanta Center
Thu 07:27:29 AM 35.4914 -81.0239 28° Northeast 353 406 15,400 1,400 Climbing Atlanta Center
Thu 07:28:29 AM 35.5900 -80.9614 27° Northeast 378 435 16,800 1,200 Climbing Atlanta Center
Thu 07:29:29 AM 35.6886 -80.9808 351° North 364 419 17,800 1,100 Climbing Atlanta Center
Thu 07:30:29 AM 35.7819 -81.0514 328° Northwest 370 426 19,000 1,200 Climbing Atlanta Center
Thu 07:31:29 AM 35.8775 -81.1222 329° Northwest 390 449 20,200 1,200 Climbing Atlanta Center
Thu 07:32:29 AM 35.9731 -81.1933 329° Northwest 397 457 21,400 1,100 Climbing Atlanta Center
Thu 07:33:29 AM 36.0686 -81.2694 327° Northwest 403 464 22,400 850 Climbing Atlanta Center
Thu 07:34:29 AM 36.1664 -81.3511 326° Northwest 415 478 23,100 700 Climbing Atlanta Center
Thu 07:35:29 AM 36.2253 -81.4700 302° West 406 467 23,800 800 Climbing Atlanta Center
Thu 07:36:29 AM 36.2842 -81.5969 300° West 419 482 24,700 900 Climbing Atlanta Center
Thu 07:37:29 AM 36.3408 -81.7242 299° West 419 482 25,600 904 Climbing Atlanta Center
Thu 07:39:15 AM 36.4400 -81.9417 300° West 419 482 27,200 826 Climbing Indianapolis Center
Thu 07:40:16 AM 36.4981 -82.0683 300° West 419 482 27,900 393 Climbing Indianapolis Center
Thu 07:41:17 AM 36.5547 -82.1969 299° West 424 488 28,000 49 Climbing Indianapolis Center
Thu 07:42:18 AM 36.6147 -82.3308 299° West 439 505 28,000  Level Indianapolis Center
Thu 07:43:19 AM 36.6750 -82.4639 299° West 441 507 28,000  Level Indianapolis Center
Thu 07:44:21 AM 36.7353 -82.5981 299° West 441 507 28,000  Level Indianapolis Center
Thu 07:45:22 AM 36.7969 -82.7306 300° West 440 506 28,000  Level Indianapolis Center
Thu 07:46:23 AM 36.8692 -82.8539 306° West 437 503 28,000  Level Indianapolis Center
Thu 07:47:24 AM 36.9503 -82.9917 306° West 452 520 28,000  Level Indianapolis Center
Thu 07:48:25 AM 37.0231 -83.1147 307° West 442 509 28,000  Level Indianapolis Center
Thu 07:49:26 AM 37.0947 -83.2378 306° West 437 503 28,000  Level Indianapolis Center
Thu 07:50:27 AM 37.1672 -83.3617 306° West 440 506 28,000  Level Indianapolis Center
Thu 07:51:28 AM 37.2400 -83.4869 306° West 441 507 28,000  Level Indianapolis Center
Thu 07:52:29 AM 37.3117 -83.6106 306° West 440 506 28,000 -49 Level Indianapolis Center
Thu 07:53:30 AM 37.4175 -83.6892 329° Northwest 448 516 27,900 -984 Descending Indianapolis Center
Thu 07:54:31 AM 37.5369 -83.7411 341° North 452 520 26,000 -1,918 Descending Indianapolis Center
Thu 07:55:32 AM 37.6692 -83.7983 341° North 431 496 24,000 -1,475 Descending Indianapolis Center
Thu 07:56:33 AM 37.7781 -83.8492 340° North 418 481 23,000 -1,475 Descending Indianapolis Center
Thu 07:57:34 AM 37.8864 -83.8989 340° North 414 476 21,000 -1,967 Descending Indianapolis Center
Thu 07:58:35 AM 37.9886 -83.9461 340° North 394 453 19,000 -1,967 Descending Indianapolis Center
Thu 07:59:36 AM 38.0872 -83.9911 340° North 379 436 17,000 -1,967 Descending Indianapolis Center
Thu 08:00:37 AM 38.1856 -84.0361 340° North 375 432 15,000 -2,016 Descending Indianapolis Center
Thu 08:01:38 AM 38.2814 -84.0808 340° North 369 425 12,900 -1,918 Descending Indianapolis Center
Thu 08:02:39 AM 38.3764 -84.1250 340° North 364 419 11,100 -893 Descending Indianapolis Center
Thu 08:03:39 AM 38.4692 -84.1772 336° Northwest 368 423 11,100 -49 Level Indianapolis Center
Thu 08:04:41 AM 38.5586 -84.2422 330° Northwest 371 427 11,000 -49 Descending Indianapolis Center
Thu 08:05:42 AM 38.6536 -84.3075 332° Northwest 374 430 11,000  Level Indianapolis Center
Thu 08:06:43 AM 38.7475 -84.3694 333° Northwest 374 430 11,000  Level Indianapolis Center
Thu 08:07:44 AM 38.8411 -84.4325 332° Northwest 375 432 11,000 -158 Level Indianapolis Center
Thu 08:07:59 AM 38.8833 -84.4500 342° North 375 432 10,800 -1,184 Descending Cincinnati TRACON
Thu 08:09:00 AM 38.9500 -84.5000 330° Northwest 315 362 9,500 -1,512 Descending Cincinnati TRACON
Thu 08:10:06 AM 39.0500 -84.5500 339° North 309 356 7,600 -1,857 Descending Cincinnati TRACON
Thu 08:11:06 AM 39.1333 -84.5500 360° North 297 342 5,600 -1,882 Descending Cincinnati TRACON
Thu 08:11:48 AM 39.1761 -84.5542 356° North 303 349 4,400 -1,107 Descending Indianapolis Center
Thu 08:12:49 AM 39.2125 -84.6078 311° West 244 281 3,700 -857 Descending Indianapolis Center
Thu 08:13:12 AM 39.2000 -84.6333 238° Southwest 166 191 3,200 -545 Descending Cincinnati TRACON
Thu 08:14:06 AM 39.1833 -84.6500 218° Southwest 135 155 3,000 -222 Descending Cincinnati TRACON

Login

Don't have an account? Register now (free) for customized features, flight alerts, and more!